Salona — J8B4719 — position and weather

sailwx.info

Track history (hours):
 
Tides and Currents Weather Stations Pressure Air Temp Water Temp Dewpoint Dewpoint Depression Visibility Wind Speed Wind Dir Waves Ship Positions

Salona

Last reported at 2014-Sep-09 19:07 UTC. Time now 2014-Sep-17 21:33 UTC.
Position N 43°22' W 001°55'.
Warning: this ship's position is 8 days out of date.

Length 70 m; draft 2.9 m.

Type: Cargo ship. MMSI: 376099000.

Date/timePositionNaut miles runAvg speedWind from/ knotsBaromVisibWave heightAir tempDewpointWater temp
2014-Sep-09 19:07N 43°22' W 001°55'0 0.0
2014-Sep-09 18:25N 43°22' W 001°55'  
2014-Sep-07 04:30N 43°53' W 002°04'22 7.4
2014-Sep-07 01:33N 44°15' W 002°10'7 7.3
2014-Sep-07 00:33N 44°22' W 002°11'8 7.4
2014-Sep-06 23:32N 44°29' W 002°13'7 7.5
2014-Sep-06 22:33N 44°37' W 002°14'7 7.3
2014-Sep-06 21:33N 44°44' W 002°17'7 7.2
2014-Sep-06 20:33N 44°51' W 002°20'120 7.5
2014-Sep-06 04:33N 46°49' W 002°43'8 7.6
2014-Sep-06 03:33N 46°57' W 002°43'6 6.4
2014-Sep-06 02:33N 47°02' W 002°36'8 7.6
2014-Sep-06 01:33N 47°05' W 002°27'8 7.6
2014-Sep-06 00:33N 47°11' W 002°18'8 3.7
2014-Sep-05 22:24N 47°17' W 002°12'0 0.0
2014-Sep-05 21:12N 47°17' W 002°12'  
Track history (hours):
 
Tides and Currents Weather Stations Pressure Air Temp Water Temp Dewpoint Dewpoint Depression Visibility Wind Speed Wind Dir Waves Ship Positions

Salona

Last reported at 2014-Sep-09 19:07 UTC. Time now 2014-Sep-17 21:33 UTC.
Position N 43°22' W 001°55'.
Warning: this ship's position is 8 days out of date.

Length 70 m; draft 2.9 m.

Type: Cargo ship. MMSI: 376099000.

Date/timePositionNaut miles runAvg speedWind from/ knotsBaromVisibWave heightAir tempDewpointWater temp
2014-Sep-09 19:07N 43°22' W 001°55'0 0.0
2014-Sep-09 18:25N 43°22' W 001°55'  
2014-Sep-07 04:30N 43°53' W 002°04'22 7.4
2014-Sep-07 01:33N 44°15' W 002°10'7 7.3
2014-Sep-07 00:33N 44°22' W 002°11'8 7.4
2014-Sep-06 23:32N 44°29' W 002°13'7 7.5
2014-Sep-06 22:33N 44°37' W 002°14'7 7.3
2014-Sep-06 21:33N 44°44' W 002°17'7 7.2
2014-Sep-06 20:33N 44°51' W 002°20'120 7.5
2014-Sep-06 04:33N 46°49' W 002°43'8 7.6
2014-Sep-06 03:33N 46°57' W 002°43'6 6.4
2014-Sep-06 02:33N 47°02' W 002°36'8 7.6
2014-Sep-06 01:33N 47°05' W 002°27'8 7.6
2014-Sep-06 00:33N 47°11' W 002°18'8 3.7
2014-Sep-05 22:24N 47°17' W 002°12'0 0.0
2014-Sep-05 21:12N 47°17' W 002°12'  

Dump ship's entire track history